Time;durP1;ratioP1;P1;durP2;ratioP2;P2;SDS_P1;SDS_P2;PMS_P1;PMS_P2;Temp;Humidity;BMP_temperature;BMP_pressure;BME280_temperature;BME280_humidity;BME280_pressure;Samples;Min_cycle;Max_cycle;Signal;HPM_P1;HPM_P2
2022/10/29 00:00:39;;;;;;;7.67;5.40;;;11.30;86.80;;;11.46;57.56;96091.63;5043980;28;20964;-59
2022/10/29 00:03:08;;;;;;;22.73;6.40;;;11.30;86.60;;;11.45;58.07;96095.19;5037698;28;20821;-54
2022/10/29 00:05:35;;;;;;;7.37;4.77;;;11.30;87.70;;;11.42;57.62;96084.06;5039029;28;20527;-54
2022/10/29 00:08:02;;;;;;;9.30;5.83;;;11.20;87.40;;;11.40;57.27;96086.81;5039077;28;20509;-54
2022/10/29 00:10:30;;;;;;;7.60;5.43;;;11.20;86.70;;;11.37;57.48;96081.75;5044653;28;20484;-55
2022/10/29 00:13:01;;;;;;;9.67;5.63;;;11.20;87.00;;;11.35;58.08;96078.38;5040316;28;20494;-55
2022/10/29 00:15:28;;;;;;;9.50;4.90;;;11.20;88.40;;;11.33;57.86;96076.84;5037805;28;20933;-54
2022/10/29 00:17:55;;;;;;;12.53;5.80;;;11.20;87.90;;;11.32;57.76;96081.25;5037150;28;20452;-54
2022/10/29 00:20:24;;;;;;;6.60;5.60;;;11.20;87.80;;;11.30;57.88;96070.00;5042990;28;21027;-54
2022/10/29 00:22:54;;;;;;;8.37;5.53;;;11.10;88.10;;;11.30;58.08;96080.53;5037635;28;20458;-56
2022/10/29 00:25:21;;;;;;;8.37;6.17;;;11.10;88.20;;;11.27;58.12;96070.22;5041645;28;20819;-54
2022/10/29 00:27:48;;;;;;;7.27;5.97;;;11.10;88.50;;;11.26;58.35;96071.16;5043713;28;20510;-55
2022/10/29 00:30:15;;;;;;;9.20;5.67;;;11.10;89.20;;;11.26;58.51;96074.66;5044292;28;20479;-57
2022/10/29 00:32:43;;;;;;;8.63;4.60;;;11.10;89.20;;;11.27;58.01;96075.50;5039858;28;20461;-56
2022/10/29 00:35:10;;;;;;;6.47;5.47;;;11.10;88.70;;;11.27;57.95;96070.22;5040940;28;20545;-54
2022/10/29 00:37:39;;;;;;;9.47;5.03;;;11.10;88.70;;;11.27;57.72;96072.84;5040483;28;20443;-55
2022/10/29 00:40:09;;;;;;;10.13;5.27;;;11.10;88.40;;;11.26;57.99;96077.28;5039854;28;20598;-55
2022/10/29 00:42:36;;;;;;;7.43;5.00;;;11.10;89.00;;;11.27;58.03;96070.22;5036455;28;20623;-54
2022/10/29 00:45:04;;;;;;;11.93;5.57;;;11.10;89.20;;;11.27;58.41;96071.06;5040690;28;20996;-53
2022/10/29 00:47:33;;;;;;;8.20;4.90;;;11.10;88.90;;;11.25;57.89;96065.06;5037813;28;20476;-56
2022/10/29 00:50:03;;;;;;;8.93;5.83;;;11.10;88.80;;;11.24;58.15;96071.28;5041989;28;20503;-53
2022/10/29 00:52:31;;;;;;;11.13;5.40;;;11.10;89.20;;;11.23;58.31;96066.13;5032462;28;20593;-55
2022/10/29 00:55:00;;;;;;;7.67;4.90;;;11.10;89.20;;;11.20;58.06;96072.47;5043507;28;20483;-53
2022/10/29 00:57:30;;;;;;;19.47;5.60;;;11.10;89.20;;;11.17;58.08;96061.31;5039959;28;20461;-55
2022/10/29 00:59:57;;;;;;;9.50;4.57;;;11.10;89.20;;;11.16;58.16;96059.66;5041428;28;20476;-54
2022/10/29 01:02:25;;;;;;;8.53;4.83;;;11.00;89.10;;;11.12;58.29;96054.63;5036588;28;20509;-52
2022/10/29 01:04:52;;;;;;;8.40;5.07;;;11.00;89.10;;;11.09;58.22;96056.63;5038816;28;20523;-55
2022/10/29 01:07:20;;;;;;;11.80;5.30;;;11.00;89.20;;;11.07;58.25;96059.38;5041651;28;20464;-54
2022/10/29 01:09:47;;;;;;;7.53;5.40;;;11.00;89.50;;;11.06;58.43;96051.59;5037937;28;20537;-56
2022/10/29 01:12:41;;;;;;;7.63;5.57;;;10.90;90.00;;;11.05;58.71;96052.56;5040141;28;20463;-54
2022/10/29 01:15:13;;;;;;;8.80;5.37;;;10.90;90.00;;;11.04;58.50;96043.78;5035912;28;20960;-55
2022/10/29 01:17:52;;;;;;;9.57;5.13;;;10.90;90.10;;;11.04;58.29;96049.06;5037930;28;20536;-56
2022/10/29 01:21:00;;;;;;;8.00;5.40;;;10.90;90.00;;;11.03;59.11;96047.41;5026695;28;20477;-56
2022/10/29 01:23:57;;;;;;;7.90;5.57;;;10.90;90.20;;;11.00;58.59;96047.63;5041889;28;20452;-55
2022/10/29 01:27:23;;;;;;;7.00;6.23;;;10.90;90.20;;;10.98;58.81;96049.50;5022814;28;20460;-54
2022/10/29 01:30:04;;;;;;;7.17;5.00;;;10.80;90.20;;;10.94;58.66;96042.81;5039594;28;20479;-54
2022/10/29 01:32:36;;;;;;;5.87;5.10;;;10.80;90.30;;;10.92;58.60;96049.97;5041108;28;20854;-55
2022/10/29 01:35:06;;;;;;;10.80;5.40;;;10.80;90.30;;;10.88;58.60;96049.38;5032779;28;20483;-54
2022/10/29 01:37:42;;;;;;;8.67;5.50;;;10.80;90.20;;;10.84;58.88;96037.38;5033155;28;21082;-55
2022/10/29 01:40:14;;;;;;;6.03;5.20;;;10.70;90.50;;;10.80;58.68;96041.19;5038113;28;20487;-59
2022/10/29 01:42:45;;;;;;;8.33;5.30;;;10.70;90.50;;;10.77;58.80;96041.41;5039390;28;20876;-53
2022/10/29 01:45:15;;;;;;;14.43;6.10;;;10.70;90.50;;;10.74;59.08;96039.84;5038077;28;20540;-54
2022/10/29 01:47:46;;;;;;;10.53;5.27;;;10.60;90.60;;;10.70;59.01;96033.09;5040708;28;20805;-55
2022/10/29 01:50:16;;;;;;;10.33;6.00;;;10.60;90.60;;;10.67;58.91;96029.88;5033698;28;20488;-54
2022/10/29 01:52:43;;;;;;;10.03;6.20;;;10.60;90.60;;;10.63;59.39;96029.28;5042322;28;20459;-54
2022/10/29 01:55:10;;;;;;;11.23;5.80;;;10.50;90.90;;;10.60;59.25;96032.13;5032760;28;20476;-55
2022/10/29 01:57:38;;;;;;;8.80;5.53;;;10.50;90.90;;;10.56;59.56;96023.59;5037008;28;20452;-54
2022/10/29 02:00:08;;;;;;;13.80;6.30;;;10.50;91.10;;;10.54;59.60;96028.13;5037771;28;20476;-54
2022/10/29 02:02:47;;;;;;;13.30;6.57;;;10.50;91.20;;;10.53;59.43;96022.97;5044844;28;20451;-54
2022/10/29 02:05:21;;;;;;;19.70;9.10;;;10.40;91.00;;;10.49;59.13;96032.06;5035363;28;20545;-56
2022/10/29 02:07:50;;;;;;;11.07;7.20;;;10.40;90.80;;;10.46;58.78;96019.13;5038980;28;20452;-55
2022/10/29 02:10:25;;;;;;;14.73;8.57;;;10.40;90.80;;;10.42;59.22;96018.50;5039319;28;20606;-54
2022/10/29 02:12:53;;;;;;;10.93;7.23;;;10.30;90.90;;;10.40;59.13;96020.41;5031112;28;20452;-56
2022/10/29 02:15:24;;;;;;;13.60;7.47;;;10.30;90.90;;;10.37;59.03;96012.72;5037632;28;20505;-54
2022/10/29 02:17:53;;;;;;;11.30;6.97;;;10.30;91.00;;;10.35;59.61;96017.28;5025606;28;20460;-54
2022/10/29 02:20:20;;;;;;;12.43;7.23;;;10.30;91.00;;;10.33;59.42;96022.66;5038636;28;20479;-54
2022/10/29 02:22:48;;;;;;;9.83;6.63;;;10.30;91.30;;;10.33;59.64;96025.28;5036084;28;20475;-55
2022/10/29 02:25:15;;;;;;;8.87;6.60;;;10.20;91.70;;;10.36;59.52;96026.81;5036522;28;20504;-54
2022/10/29 02:27:42;;;;;;;9.63;6.00;;;10.20;91.50;;;10.37;59.83;96031.16;5030567;28;20452;-56
2022/10/29 02:30:10;;;;;;;10.00;6.00;;;10.20;91.60;;;10.34;59.71;96019.03;5031683;28;20487;-57
2022/10/29 02:32:38;;;;;;;10.80;6.40;;;10.20;91.50;;;10.35;59.80;96014.66;5038408;28;20533;-55
2022/10/29 02:35:07;;;;;;;7.37;5.43;;;10.20;91.60;;;10.33;59.54;96024.41;5036920;28;20541;-54
2022/10/29 02:37:35;;;;;;;7.70;5.00;;;10.20;91.50;;;10.30;60.03;96017.56;5034277;28;20552;-55
2022/10/29 02:40:02;;;;;;;4.60;3.83;;;10.20;91.90;;;10.29;60.01;96015.06;5039905;28;21089;-56
2022/10/29 02:42:29;;;;;;;6.63;4.70;;;10.20;91.60;;;10.28;59.88;96016.81;5038346;28;20453;-55
2022/10/29 02:44:57;;;;;;;5.97;4.47;;;10.20;91.80;;;10.30;59.75;96014.09;5044666;28;20659;-54
2022/10/29 02:47:24;;;;;;;12.93;4.80;;;10.20;91.90;;;10.31;60.34;96008.72;5041239;28;20509;-54
2022/10/29 02:49:51;;;;;;;9.63;5.00;;;10.20;91.90;;;10.33;59.59;96013.91;5036479;28;20484;-55
2022/10/29 02:52:20;;;;;;;8.20;4.77;;;10.20;91.70;;;10.34;59.71;96012.97;5037970;28;20464;-54
2022/10/29 02:54:47;;;;;;;7.97;4.70;;;10.20;91.90;;;10.33;60.07;96017.38;5037055;28;20484;-54
2022/10/29 02:57:14;;;;;;;9.37;3.67;;;10.20;91.90;;;10.34;59.70;96002.44;5033675;28;20467;-55
2022/10/29 02:59:41;;;;;;;4.83;4.27;;;10.20;91.80;;;10.34;59.94;96007.69;5046194;28;20471;-56
2022/10/29 03:02:09;;;;;;;6.07;4.30;;;10.20;92.20;;;10.34;59.92;96011.16;5044601;28;21018;-55
2022/10/29 03:04:38;;;;;;;4.33;3.33;;;10.20;91.90;;;10.35;59.88;96009.38;5041789;28;20521;-53
2022/10/29 03:07:05;;;;;;;6.30;4.67;;;10.20;92.20;;;10.33;59.89;96014.75;5040324;28;20455;-55
2022/10/29 03:09:34;;;;;;;5.00;4.20;;;10.20;91.90;;;10.28;59.62;96006.31;5035248;28;21087;-55
2022/10/29 03:12:01;;;;;;;10.30;4.50;;;10.20;91.80;;;10.25;60.56;96003.06;5037878;28;20459;-55
2022/10/29 03:14:28;;;;;;;7.50;4.80;;;10.20;92.30;;;10.20;60.31;96011.28;5035919;28;20482;-54
2022/10/29 03:16:56;;;;;;;8.27;4.90;;;10.10;92.20;;;10.15;60.48;96008.97;5039826;28;20456;-55
2022/10/29 03:19:23;;;;;;;7.77;4.40;;;10.00;92.20;;;10.10;60.54;96004.97;5038465;28;20487;-53
2022/10/29 03:21:50;;;;;;;6.17;4.07;;;10.00;92.40;;;10.03;60.36;96000.16;5038463;28;20854;-53
2022/10/29 03:24:18;;;;;;;8.60;4.70;;;9.90;92.90;;;10.01;60.61;96007.31;5037067;28;20484;-55
2022/10/29 03:26:50;;;;;;;7.33;3.93;;;9.90;92.90;;;9.96;60.72;95998.94;5040967;28;20542;-55
2022/10/29 03:29:17;;;;;;;5.70;4.40;;;9.90;93.20;;;9.91;60.88;96008.91;5036865;28;20511;-54
2022/10/29 03:31:45;;;;;;;6.50;4.47;;;9.90;93.20;;;9.87;60.71;96004.84;5041689;28;20452;-54
2022/10/29 03:34:12;;;;;;;9.07;5.40;;;9.80;93.10;;;9.82;61.23;95997.28;5038039;28;20767;-55
2022/10/29 03:36:39;;;;;;;4.90;4.43;;;9.80;93.50;;;9.78;60.63;95994.97;5043458;28;20459;-55
2022/10/29 03:39:07;;;;;;;8.40;4.83;;;9.70;93.50;;;9.77;61.45;95998.53;5044061;28;20482;-56
2022/10/29 03:41:36;;;;;;;7.13;5.20;;;9.70;93.90;;;9.75;61.40;95990.75;5038670;28;20452;-54
2022/10/29 03:44:06;;;;;;;10.00;5.70;;;9.70;93.70;;;9.77;61.36;96001.16;5039313;28;20479;-55
2022/10/29 03:46:33;;;;;;;11.60;5.40;;;9.70;93.60;;;9.76;61.47;95986.34;5039619;28;20491;-57
2022/10/29 03:49:00;;;;;;;9.10;5.03;;;9.70;94.00;;;9.75;60.98;95995.19;5040809;28;20479;-56
2022/10/29 03:51:28;;;;;;;8.40;5.53;;;9.70;93.50;;;9.75;61.33;95997.81;5041586;28;20472;-56
2022/10/29 03:53:55;;;;;;;8.60;5.13;;;9.70;93.60;;;9.74;61.25;95996.94;5045586;28;20840;-58
2022/10/29 03:56:22;;;;;;;8.40;5.00;;;9.70;93.80;;;9.73;60.90;95994.44;5035505;28;20455;-53
2022/10/29 03:58:49;;;;;;;7.53;5.53;;;9.60;93.50;;;9.71;60.71;95991.06;5041896;28;20571;-54
2022/10/29 04:01:18;;;;;;;7.57;5.63;;;9.60;93.50;;;9.70;61.33;95998.13;5028745;28;20966;-55
2022/10/29 04:03:45;;;;;;;9.47;6.30;;;9.60;93.60;;;9.68;60.89;95994.75;5036864;28;20579;-55
2022/10/29 04:06:15;;;;;;;13.60;6.00;;;9.60;93.50;;;9.65;61.42;95995.81;5038838;28;20548;-55
2022/10/29 04:08:42;;;;;;;9.73;4.80;;;9.60;93.80;;;9.62;61.31;95996.03;5031795;28;20486;-54
2022/10/29 04:11:11;;;;;;;8.90;5.00;;;9.60;93.80;;;9.58;61.46;95994.56;5036096;28;20460;-56
2022/10/29 04:13:38;;;;;;;14.17;5.30;;;9.50;93.90;;;9.56;61.38;95991.19;5035915;28;20476;-55
2022/10/29 04:16:06;;;;;;;8.57;5.63;;;9.50;93.70;;;9.52;61.54;95995.81;5040511;28;20461;-54
2022/10/29 04:18:35;;;;;;;7.30;5.23;;;9.50;94.00;;;9.49;61.80;95988.13;5037994;28;20488;-54
2022/10/29 04:21:02;;;;;;;13.50;6.43;;;9.40;94.20;;;9.48;61.92;95993.50;5033559;28;20459;-55
2022/10/29 04:23:29;;;;;;;14.23;5.50;;;9.40;94.40;;;9.47;61.45;96002.34;5039743;28;20474;-55
2022/10/29 04:25:57;;;;;;;15.07;6.30;;;9.40;94.10;;;9.48;61.90;96014.50;5040812;28;20491;-55
2022/10/29 04:28:25;;;;;;;16.40;5.83;;;9.40;94.20;;;9.45;61.27;95994.56;5038442;28;20459;-56
2022/10/29 04:30:52;;;;;;;11.90;6.40;;;9.40;94.10;;;9.45;61.45;96002.44;5038330;28;20460;-56
2022/10/29 04:33:19;;;;;;;12.70;5.97;;;9.40;94.20;;;9.45;61.41;96004.22;5031205;28;20452;-55
2022/10/29 04:35:53;;;;;;;9.63;5.97;;;9.40;94.10;;;9.44;61.74;96002.53;5038259;28;20460;-55
2022/10/29 04:38:20;;;;;;;12.23;6.90;;;9.40;94.10;;;9.41;61.57;96010.63;5030444;28;20506;-55
2022/10/29 04:40:47;;;;;;;9.33;5.43;;;9.40;94.20;;;9.40;61.51;96011.56;5040656;28;20453;-54
2022/10/29 04:43:15;;;;;;;7.93;5.60;;;9.30;94.00;;;9.36;61.32;96018.81;5044692;28;20467;-56
2022/10/29 04:45:42;;;;;;;7.33;5.20;;;9.30;94.00;;;9.31;61.38;96013.88;5043045;28;20501;-56
2022/10/29 04:48:09;;;;;;;13.23;6.60;;;9.30;93.90;;;9.31;61.26;96018.28;5044555;28;20509;-54
2022/10/29 04:50:37;;;;;;;8.67;5.97;;;9.20;93.90;;;9.28;61.51;96019.34;5040479;28;20980;-55
2022/10/29 04:53:07;;;;;;;9.90;6.40;;;9.20;93.90;;;9.24;61.78;96015.22;5042816;28;20534;-55
2022/10/29 04:55:36;;;;;;;10.60;6.40;;;9.20;94.00;;;9.21;61.25;96012.81;5042037;28;20627;-56
2022/10/29 04:58:03;;;;;;;13.70;5.27;;;9.20;93.90;;;9.15;61.28;96013.22;5045578;28;20455;-54
2022/10/29 05:00:31;;;;;;;14.53;6.23;;;9.10;93.80;;;9.11;61.30;96006.50;5039383;28;20465;-54
2022/10/29 05:02:58;;;;;;;7.23;5.40;;;9.10;93.80;;;9.10;61.62;96004.81;5030688;28;20509;-57
2022/10/29 05:05:25;;;;;;;11.87;5.70;;;9.10;94.30;;;9.09;61.49;96016.25;5038286;28;20492;-53
2022/10/29 05:07:57;;;;;;;10.60;6.53;;;9.00;94.00;;;9.09;61.97;96014.50;5032011;28;20455;-54
2022/10/29 05:10:27;;;;;;;12.70;7.20;;;9.00;94.20;;;9.07;61.80;96011.09;5031775;28;21095;-54
2022/10/29 05:12:58;;;;;;;10.70;6.37;;;9.00;94.50;;;9.05;61.94;96014.78;5039832;28;20835;-55
2022/10/29 05:15:26;;;;;;;15.67;7.73;;;9.00;94.50;;;9.00;62.35;96020.34;5039392;28;20487;-54
2022/10/29 05:17:53;;;;;;;11.13;6.70;;;9.00;94.90;;;8.97;62.12;96016.13;5036136;28;20509;-53
2022/10/29 05:20:20;;;;;;;19.53;7.43;;;8.90;94.80;;;9.01;62.47;96018.56;5040148;28;20992;-55
2022/10/29 05:22:48;;;;;;;12.70;7.40;;;8.90;95.00;;;9.03;62.54;96009.66;5038851;28;20467;-54
2022/10/29 05:25:15;;;;;;;11.10;7.50;;;9.00;95.00;;;9.05;62.79;96007.75;5040029;28;20488;-54
2022/10/29 05:27:44;;;;;;;13.80;8.37;;;9.00;95.00;;;9.09;63.06;96013.63;5041411;28;20494;-55
2022/10/29 05:30:12;;;;;;;21.40;8.00;;;9.00;95.50;;;9.14;62.84;96011.56;5032134;28;20479;-57
2022/10/29 05:32:39;;;;;;;14.73;8.50;;;9.10;95.30;;;9.20;62.70;96016.41;5026673;28;20527;-54
2022/10/29 05:35:07;;;;;;;14.03;8.33;;;9.10;95.30;;;9.27;63.05;96022.06;5026140;28;20483;-55
2022/10/29 05:37:35;;;;;;;23.53;7.80;;;9.20;95.40;;;9.36;62.20;96020.59;5021518;28;20498;-55
2022/10/29 05:40:02;;;;;;;22.40;8.33;;;9.30;95.20;;;9.45;62.35;96025.22;5028775;28;20852;-56
2022/10/29 05:42:30;;;;;;;11.30;7.50;;;9.30;95.20;;;9.55;62.55;96030.69;5007474;28;20469;-56
2022/10/29 05:44:58;;;;;;;13.20;8.00;;;9.40;95.30;;;9.66;62.19;96029.00;5019277;28;20491;-56
2022/10/29 05:47:26;;;;;;;20.83;7.50;;;9.50;95.20;;;9.81;61.95;96032.38;5026438;28;20488;-54
2022/10/29 05:49:53;;;;;;;15.53;8.63;;;9.70;95.00;;;10.02;61.67;96027.41;5017565;28;21083;-55
2022/10/29 05:52:20;;;;;;;29.03;10.03;;;9.90;95.00;;;10.38;61.16;96035.47;5030376;28;20463;-55
2022/10/29 05:54:48;;;;;;;20.47;9.63;;;10.10;94.30;;;10.82;60.21;96038.44;5009078;28;20473;-56
2022/10/29 05:57:15;;;;;;;21.60;9.63;;;10.50;93.70;;;11.23;59.14;96038.03;5007867;28;21077;-56
2022/10/29 05:59:43;;;;;;;16.80;8.67;;;10.90;92.90;;;11.63;58.33;96037.63;5019133;28;20485;-56
2022/10/29 06:02:11;;;;;;;18.47;8.70;;;11.30;92.30;;;12.11;57.50;96041.88;5028766;28;20456;-55
2022/10/29 06:04:38;;;;;;;19.77;8.93;;;11.70;91.40;;;12.57;56.40;96037.41;5030445;28;20905;-54
2022/10/29 06:07:06;;;;;;;20.97;9.60;;;12.20;90.80;;;13.04;55.56;96047.69;5033895;28;21058;-53
2022/10/29 06:09:33;;;;;;;20.50;11.20;;;12.60;90.00;;;13.51;54.74;96040.31;5036240;28;20487;-56
2022/10/29 06:12:01;;;;;;;26.63;10.57;;;13.10;88.30;;;14.01;53.90;96036.13;5034367;28;20857;-56
2022/10/29 06:14:28;;;;;;;21.87;11.43;;;13.60;86.90;;;14.47;52.77;96043.56;5035841;28;20543;-55
2022/10/29 06:16:55;;;;;;;23.30;11.97;;;14.00;84.90;;;14.81;52.26;96048.53;5032857;28;20549;-57
2022/10/29 06:19:24;;;;;;;25.50;12.47;;;14.40;83.30;;;15.16;51.49;96052.47;5036837;28;20912;-55
2022/10/29 06:21:51;;;;;;;25.13;14.27;;;14.70;81.60;;;15.58;50.54;96054.00;5038455;28;20460;-57
2022/10/29 06:24:18;;;;;;;41.43;14.63;;;15.10;79.50;;;16.02;50.17;96045.53;5032921;28;20548;-55
2022/10/29 06:26:46;;;;;;;28.43;16.47;;;15.50;78.40;;;16.49;49.33;96048.16;5010434;28;20492;-53
2022/10/29 06:29:13;;;;;;;28.17;16.30;;;16.00;76.90;;;16.99;48.47;96044.25;5005534;28;20482;-54
2022/10/29 06:31:40;;;;;;;21.77;13.63;;;16.40;75.40;;;17.50;48.30;96036.56;5003612;28;20729;-54
2022/10/29 06:34:07;;;;;;;19.00;12.20;;;16.90;74.40;;;18.00;46.85;96037.78;5010555;28;21007;-53
2022/10/29 06:36:36;;;;;;;17.17;11.70;;;17.50;72.10;;;18.49;46.43;96042.56;5004093;28;20457;-55
2022/10/29 06:39:04;;;;;;;16.93;11.20;;;17.90;69.90;;;18.92;45.99;96044.22;5003430;28;20477;-56
2022/10/29 06:41:31;;;;;;;14.30;9.20;;;18.40;69.00;;;19.32;45.53;96047.13;5010881;28;20461;-55
2022/10/29 06:43:58;;;;;;;21.27;10.87;;;18.80;67.00;;;19.69;44.39;96043.16;5008395;28;20483;-56
2022/10/29 06:46:25;;;;;;;15.30;10.43;;;19.10;65.70;;;20.11;43.67;96057.28;5012751;28;20496;-56
2022/10/29 06:48:53;;;;;;;23.10;10.80;;;19.50;64.20;;;20.51;43.19;96050.16;5023361;28;20484;-55
2022/10/29 06:51:21;;;;;;;19.30;9.90;;;19.90;63.10;;;20.93;42.74;96049.03;5033784;28;20464;-55
2022/10/29 06:53:50;;;;;;;23.13;9.50;;;20.30;61.90;;;21.39;41.76;96042.88;5038982;28;20556;-57
2022/10/29 06:56:17;;;;;;;24.10;10.10;;;20.80;59.90;;;21.84;41.49;96036.69;5035663;28;20941;-54
2022/10/29 06:58:44;;;;;;;30.73;10.40;;;21.20;59.30;;;22.29;40.67;96030.53;5033095;28;20562;-55
2022/10/29 07:01:12;;;;;;;12.13;9.73;;;21.70;58.00;;;22.70;39.36;96041.66;5038100;28;20972;-56
2022/10/29 07:03:39;;;;;;;14.33;8.30;;;22.20;56.40;;;23.09;39.82;96039.66;5040052;28;20487;-54
2022/10/29 07:06:07;;;;;;;19.80;9.50;;;22.60;56.10;;;23.46;38.98;96051.22;5039584;28;20472;-56
2022/10/29 07:08:34;;;;;;;14.67;9.17;;;23.00;55.20;;;23.88;37.92;96043.34;5041424;28;20480;-56
2022/10/29 07:11:04;;;;;;;10.80;8.53;;;23.50;54.30;;;24.30;38.06;96047.78;5041070;28;20455;-54
2022/10/29 07:13:31;;;;;;;18.50;8.70;;;24.00;54.30;;;24.64;36.89;96048.84;5043756;28;20471;-55
2022/10/29 07:15:58;;;;;;;9.37;7.27;;;24.50;52.40;;;24.98;36.00;96055.22;5033025;28;20459;-55
2022/10/29 07:18:26;;;;;;;13.00;7.73;;;25.00;50.90;;;25.32;35.72;96053.50;5036926;28;20515;-54
2022/10/29 07:20:53;;;;;;;11.33;6.90;;;25.40;50.60;;;25.67;34.74;96053.34;5040710;28;20521;-54
2022/10/29 07:23:20;;;;;;;9.00;7.00;;;25.90;49.80;;;25.99;34.61;96061.69;5029922;28;20739;-56
2022/10/29 07:25:48;;;;;;;6.47;5.60;;;26.30;49.10;;;26.10;33.32;96049.44;5037565;28;20455;-58
2022/10/29 07:28:19;;;;;;;9.83;6.63;;;26.50;47.20;;;26.01;33.34;96054.25;5038116;28;20531;-55
2022/10/29 07:30:47;;;;;;;17.60;10.70;;;26.60;46.80;;;25.93;33.54;96052.53;5042033;28;20518;-54
2022/10/29 07:33:14;;;;;;;10.27;6.43;;;26.50;46.80;;;25.89;33.61;96050.47;5034525;28;20459;-57
2022/10/29 07:35:42;;;;;;;8.57;6.50;;;26.40;46.50;;;25.87;33.26;96052.53;5046396;28;20467;-55
2022/10/29 07:38:10;;;;;;;11.17;6.37;;;26.30;46.40;;;25.85;32.92;96052.72;5035818;28;20477;-55
2022/10/29 07:40:37;;;;;;;9.07;6.83;;;26.10;46.10;;;25.83;33.16;96041.34;5040171;28;20478;-56
2022/10/29 07:43:04;;;;;;;14.33;6.00;;;25.90;46.00;;;25.86;32.66;96050.88;5042947;28;20508;-55
2022/10/29 07:45:33;;;;;;;6.80;6.10;;;25.80;45.60;;;25.77;32.46;96047.56;5042095;28;20864;-56
2022/10/29 07:48:01;;;;;;;11.53;7.40;;;25.70;45.50;;;25.58;32.66;96049.19;5041959;28;20522;-56
2022/10/29 07:50:28;;;;;;;8.97;7.30;;;25.50;45.10;;;25.43;32.65;96046.69;5040575;28;20511;-54
2022/10/29 07:52:55;;;;;;;8.27;6.80;;;25.20;45.60;;;25.34;32.48;96043.34;5037854;28;20463;-57
2022/10/29 07:55:23;;;;;;;10.63;6.97;;;25.10;45.50;;;25.29;32.94;96043.13;5029115;28;20483;-56
2022/10/29 07:57:57;;;;;;;21.03;6.67;;;24.90;45.60;;;25.29;32.63;96035.03;5033521;28;20529;-56
2022/10/29 08:00:25;;;;;;;19.67;6.47;;;24.90;45.70;;;25.40;32.71;96037.13;5019083;28;20990;-55
2022/10/29 08:02:54;;;;;;;12.20;7.43;;;25.00;46.20;;;25.62;32.88;96036.97;5032754;28;20497;-54
2022/10/29 08:05:22;;;;;;;16.67;8.40;;;25.10;46.00;;;25.73;32.34;96036.38;5031045;28;20491;-55
2022/10/29 08:07:49;;;;;;;8.20;7.40;;;25.20;45.60;;;25.79;32.13;96023.09;5041802;28;20487;-56
2022/10/29 08:10:17;;;;;;;14.67;7.83;;;25.30;45.40;;;25.84;32.05;96025.97;5042443;28;20862;-57
2022/10/29 08:12:50;;;;;;;20.30;8.53;;;25.30;45.00;;;25.88;32.08;96022.66;5023264;28;20464;-53
2022/10/29 08:15:17;;;;;;;14.00;7.50;;;25.40;45.30;;;25.92;32.20;96031.19;5039051;28;20955;-54
2022/10/29 08:17:45;;;;;;;13.10;8.03;;;25.40;45.10;;;26.03;32.07;96025.19;5031812;28;20490;-54
2022/10/29 08:20:14;;;;;;;10.60;7.60;;;25.50;45.20;;;26.23;31.89;96024.34;5037767;28;20484;-56
2022/10/29 08:22:41;;;;;;;14.10;9.13;;;25.70;45.20;;;26.45;31.74;96025.75;5042264;28;20464;-54
2022/10/29 08:25:09;;;;;;;17.23;8.40;;;25.80;44.70;;;26.64;31.17;96018.63;5039978;28;21082;-56
2022/10/29 08:27:37;;;;;;;21.83;12.73;;;26.00;44.30;;;26.83;31.23;96025.03;5043320;28;20856;-57
2022/10/29 08:30:05;;;;;;;12.90;10.23;;;26.20;44.40;;;27.01;30.96;96021.63;5027335;28;21082;-54
2022/10/29 08:32:32;;;;;;;10.80;7.83;;;26.50;44.20;;;27.18;30.74;96016.56;5039387;28;20471;-55
2022/10/29 08:34:59;;;;;;;17.13;8.50;;;26.60;43.60;;;27.49;30.79;96011.44;5038177;28;20548;-56
2022/10/29 08:37:28;;;;;;;11.40;8.37;;;26.90;43.50;;;27.80;30.43;96015.97;5028903;28;20465;-56
2022/10/29 08:39:55;;;;;;;14.47;8.20;;;27.20;43.30;;;28.17;29.33;96018.81;5042680;28;20483;-54
2022/10/29 08:42:35;;;;;;;21.43;8.10;;;27.50;42.60;;;28.51;29.55;95999.53;5046450;28;20455;-57
2022/10/29 08:45:15;;;;;;;37.67;7.87;;;27.80;42.10;;;28.84;29.09;95999.16;5042485;28;20545;-56
2022/10/29 08:47:52;;;;;;;12.23;8.00;;;28.10;41.90;;;29.20;28.43;96002.88;5039641;28;20515;-57
2022/10/29 08:50:24;;;;;;;19.53;8.77;;;28.50;41.50;;;29.57;28.39;95999.25;5041605;28;20498;-56
2022/10/29 08:52:52;;;;;;;13.23;8.50;;;28.80;41.00;;;29.90;28.57;95993.31;5043658;28;20857;-56
2022/10/29 08:55:21;;;;;;;20.97;8.50;;;29.10;41.10;;;30.20;28.43;95992.38;5045384;28;20571;-55
2022/10/29 08:57:51;;;;;;;11.17;8.47;;;29.40;40.10;;;30.42;27.33;95994.53;5045223;28;20458;-56
2022/10/29 09:00:20;;;;;;;27.63;8.03;;;29.60;39.70;;;30.57;27.34;95992.97;5044180;28;20479;-56
2022/10/29 09:02:48;;;;;;;14.20;8.07;;;29.80;39.20;;;30.78;26.96;95993.38;5038215;28;20443;-57
2022/10/29 09:05:16;;;;;;;11.67;7.13;;;30.00;38.90;;;30.98;26.77;95986.75;5044887;28;20879;-56
2022/10/29 09:08:00;;;;;;;10.93;8.77;;;30.20;38.70;;;31.16;26.81;95983.03;5044952;28;20491;-56
2022/10/29 09:10:32;;;;;;;21.40;7.00;;;30.40;38.30;;;31.24;26.05;95986.16;5038522;28;21202;-57
2022/10/29 09:13:22;;;;;;;13.40;6.90;;;30.50;37.70;;;31.32;26.45;95978.69;5039168;28;20451;-56
2022/10/29 09:16:07;;;;;;;24.43;9.13;;;30.60;37.80;;;31.32;26.09;95987.66;5040528;28;20476;-54
2022/10/29 09:18:47;;;;;;;7.70;5.73;;;30.60;37.70;;;31.30;25.61;95978.13;5032338;28;20475;-56
2022/10/29 09:21:24;;;;;;;6.77;5.20;;;30.70;37.20;;;31.38;26.22;95975.81;5038556;28;20526;-54
2022/10/29 09:24:01;;;;;;;13.50;5.93;;;30.70;37.30;;;31.51;25.89;95984.72;5040689;28;20536;-56
2022/10/29 09:26:31;;;;;;;12.03;6.10;;;30.80;36.80;;;31.62;26.53;95976.53;5042253;28;20946;-54
2022/10/29 09:29:18;;;;;;;20.13;5.67;;;30.90;37.40;;;31.77;25.95;95978.69;5037275;28;20506;-56
2022/10/29 09:31:48;;;;;;;16.67;5.50;;;31.00;36.70;;;31.88;25.57;95974.22;5037798;28;20205;-54
2022/10/29 09:34:18;;;;;;;7.33;5.97;;;31.10;36.90;;;31.95;26.06;95972.16;5041942;28;20479;-54
2022/10/29 09:36:46;;;;;;;7.33;4.77;;;31.20;36.70;;;32.03;25.75;95965.47;5039314;28;20267;-55
2022/10/29 09:39:19;;;;;;;11.67;5.60;;;31.20;36.90;;;32.02;25.54;95963.81;5035766;28;20569;-54
2022/10/29 09:41:47;;;;;;;19.83;5.10;;;31.30;36.60;;;32.05;25.61;95957.88;5034382;28;20208;-56
2022/10/29 09:44:20;;;;;;;10.50;5.67;;;31.40;36.50;;;32.10;25.72;95958.00;5043195;28;20677;-55
2022/10/29 09:46:53;;;;;;;14.23;5.30;;;31.40;36.50;;;32.10;25.38;95955.28;5036026;28;20448;-54
2022/10/29 09:49:31;;;;;;;12.57;5.80;;;31.40;36.10;;;32.16;25.38;95954.28;5043507;28;20232;-54
2022/10/29 09:52:02;;;;;;;11.30;5.13;;;31.50;36.30;;;32.23;25.01;95950.56;5043181;28;20442;-55
2022/10/29 09:54:30;;;;;;;8.27;5.17;;;31.50;36.30;;;32.30;25.23;95951.19;5038762;28;20721;-56
2022/10/29 09:56:58;;;;;;;6.93;4.60;;;31.60;36.20;;;32.40;25.21;95937.72;5038624;28;20209;-57
2022/10/29 09:59:29;;;;;;;6.30;4.87;;;31.70;35.90;;;32.46;25.16;95939.44;5043782;28;20651;-54
2022/10/29 10:01:56;;;;;;;4.77;4.13;;;31.80;35.80;;;32.55;25.28;95928.09;5042099;28;20203;-54
2022/10/29 10:04:27;;;;;;;8.50;4.50;;;31.90;35.70;;;32.62;25.09;95928.72;5041651;28;20232;-55
2022/10/29 10:07:08;;;;;;;14.97;4.90;;;31.90;35.60;;;32.64;24.58;95926.56;5041873;28;20343;-56
2022/10/29 10:10:01;;;;;;;4.40;4.00;;;32.00;35.00;;;32.69;24.92;95910.34;5037515;28;20291;-54
2022/10/29 10:12:29;;;;;;;6.90;4.23;;;32.10;35.20;;;32.73;24.88;95911.44;5024615;28;20228;-56
2022/10/29 10:15:05;;;;;;;20.20;4.70;;;32.10;35.40;;;32.67;25.03;95904.28;5041833;28;20279;-55
2022/10/29 10:17:54;;;;;;;4.87;4.33;;;32.10;35.30;;;32.63;24.29;95898.50;5041960;28;20317;-52
2022/10/29 10:20:37;;;;;;;10.37;4.57;;;32.10;34.80;;;32.64;24.73;95888.44;5043215;28;20299;-55
2022/10/29 10:23:22;;;;;;;9.73;4.13;;;32.10;34.80;;;32.63;24.70;95887.63;5042462;28;20197;-56
2022/10/29 10:25:51;;;;;;;10.63;4.30;;;32.10;34.80;;;32.69;24.72;95881.19;5043498;28;20197;-55
2022/10/29 10:28:20;;;;;;;3.00;2.80;;;32.10;35.10;;;32.71;24.97;95883.66;5043960;28;20685;-56